Shoukeimaruno.3 — JI3587 — position and weather

sailwx.info

Track history (hours):
 
Tides and Currents Weather Stations Pressure Air Temp Water Temp Dewpoint Dewpoint Depression Visibility Wind Speed Wind Dir Waves Ship Positions

Shoukeimaruno.3

Last reported at 2017-Jan-09 08:32 UTC. Time now 2017-Jan-16 17:17 UTC.
Position N 35°03' E 139°44'.

Length 77 m; draft 4.2 m.

Type: Cargo ship. MMSI: 431300325.

Date/timePositionNaut miles runAvg speedWind from/ knotsBaromVisibWave heightAir tempDewpointWater temp
2017-Jan-09 08:32N 35°03' E 139°44'1212.6
2017-Jan-09 07:33N 35°15' E 139°46'1111.1
2017-Jan-09 06:33N 35°24' E 139°38'0 0.2
2017-Jan-09 05:33N 35°24' E 139°37'0 0.0
2017-Jan-09 04:33N 35°24' E 139°37'0 0.0
2017-Jan-09 03:33N 35°24' E 139°37'0 0.0
2017-Jan-09 02:33N 35°24' E 139°37'0 0.0
2017-Jan-09 01:33N 35°24' E 139°37'0 0.0
2017-Jan-09 00:33N 35°24' E 139°37'0 0.0
2017-Jan-08 23:33N 35°24' E 139°37'2 2.0
2017-Jan-08 22:33N 35°23' E 139°40'0 0.0
2017-Jan-08 21:33N 35°23' E 139°40'0 0.0
2017-Jan-08 20:33N 35°23' E 139°40'0 0.0
2017-Jan-08 19:34N 35°23' E 139°40'0 0.0
2017-Jan-08 18:31N 35°23' E 139°40'0 0.0
2017-Jan-08 17:33N 35°23' E 139°40'0 0.0
2017-Jan-08 16:34N 35°23' E 139°40'0 0.0
2017-Jan-08 15:31N 35°23' E 139°40'0 0.1
2017-Jan-08 14:34N 35°23' E 139°40'0 0.0
2017-Jan-08 13:34N 35°23' E 139°40'0 0.0
2017-Jan-08 12:34N 35°23' E 139°40'0 0.0
2017-Jan-08 11:33N 35°23' E 139°40'0 0.0
2017-Jan-08 10:32N 35°23' E 139°40'0 0.0
2017-Jan-08 09:32N 35°23' E 139°40'0 0.0
2017-Jan-08 08:32N 35°23' E 139°40'0 0.0
2017-Jan-08 07:32N 35°23' E 139°40'0 0.0
2017-Jan-08 06:32N 35°23' E 139°40'0 0.0
2017-Jan-08 05:32N 35°23' E 139°40'0 0.0
2017-Jan-08 04:31N 35°23' E 139°40'0 0.0
2017-Jan-08 03:32N 35°23' E 139°40'0 0.0
2017-Jan-08 02:31N 35°23' E 139°40'0 0.0
2017-Jan-08 01:31N 35°23' E 139°40'0 0.0
2017-Jan-08 00:31N 35°23' E 139°40'0 0.0
2017-Jan-07 23:32N 35°23' E 139°40'0 0.0
2017-Jan-07 22:32N 35°23' E 139°40'0 0.0
2017-Jan-07 21:32N 35°23' E 139°40'0 0.0
2017-Jan-07 20:32N 35°23' E 139°40'0 0.0
2017-Jan-07 19:32N 35°23' E 139°40'0 0.0
2017-Jan-07 18:32N 35°23' E 139°40'0 0.0
2017-Jan-07 17:31N 35°23' E 139°40'0 0.0
2017-Jan-07 16:31N 35°23' E 139°40'0 0.0
2017-Jan-07 15:32N 35°23' E 139°40'0 0.0
2017-Jan-07 14:31N 35°23' E 139°40'0 0.0
2017-Jan-07 13:31N 35°23' E 139°40'0 0.0
2017-Jan-07 12:31N 35°23' E 139°40'0 0.1
2017-Jan-07 11:31N 35°23' E 139°40'0 0.0
2017-Jan-07 10:31N 35°23' E 139°40'0 0.1
2017-Jan-07 09:31N 35°23' E 139°40'0 0.1
2017-Jan-07 08:31N 35°23' E 139°40'9 9.2
2017-Jan-07 07:33N 35°16' E 139°46'24610.2
2017-Jan-06 07:33N 34°05' E 134°60'1512.0
2017-Jan-06 06:19N 34°20' E 134°60'912.3
2017-Jan-06 05:33N 34°26' E 135°09'1312.4
2017-Jan-06 04:33N 34°37' E 135°17'5 4.8
2017-Jan-06 03:29N 34°42' E 135°19'2 1.8
2017-Jan-06 02:29N 34°42' E 135°17'0 0.0
2017-Jan-06 01:29N 34°42' E 135°17'0 0.0
2017-Jan-06 00:29N 34°42' E 135°17'0 0.0
2017-Jan-05 23:21N 34°42' E 135°17'1 1.9
2017-Jan-05 22:33N 34°42' E 135°19'0 0.2
2017-Jan-05 21:31N 34°42' E 135°19'0 0.0
2017-Jan-05 20:25N 34°42' E 135°19'0 0.0
2017-Jan-05 19:13N 34°42' E 135°19'0 0.0
2017-Jan-05 18:31N 34°42' E 135°19'0 0.0
2017-Jan-05 17:31N 34°42' E 135°19'0 0.0
2017-Jan-05 16:31N 34°42' E 135°19'2 2.2
2017-Jan-05 15:33N 34°40' E 135°19'1211.5
2017-Jan-05 14:33N 34°29' E 135°12'1211.2
2017-Jan-05 13:31N 34°21' E 135°03'10 9.8
2017-Jan-05 12:33N 34°12' E 134°59'241 8.6
2017-Jan-04 08:30N 35°10' E 139°43'1010.2
2017-Jan-04 07:33N 35°19' E 139°43'1010.5
2017-Jan-04 06:33N 35°28' E 139°49'1211.7
2017-Jan-04 05:33N 35°34' E 140°02'2 0.2
2017-Jan-03 21:30N 35°34' E 140°04'0 0.0
2017-Jan-03 20:06N 35°34' E 140°04'0 0.0
2017-Jan-03 19:27N 35°34' E 140°04'0 0.0
2017-Jan-03 18:24N 35°34' E 140°04'0 0.0
2017-Jan-03 16:09N 35°34' E 140°04'0 0.0
2017-Jan-03 14:24N 35°34' E 140°04'0 0.0
2017-Jan-03 13:09N 35°34' E 140°04'0 0.0
2017-Jan-03 12:05N 35°34' E 140°04'0 0.0
2017-Jan-03 11:29N 35°34' E 140°04'0 0.0
2017-Jan-03 08:06N 35°34' E 140°04'4 5.3
2017-Jan-03 07:24N 35°36' E 139°60'5 0.6
2017-Jan-02 22:05N 35°41' E 139°59'0 0.0
2017-Jan-02 21:32N 35°41' E 139°59'0 0.0
2017-Jan-02 20:23N 35°41' E 139°59'0 0.0
2017-Jan-02 19:32N 35°41' E 139°59'0 0.0
2017-Jan-02 18:32N 35°41' E 139°59'0 0.0
2017-Jan-02 17:32N 35°41' E 139°59'0 0.0
2017-Jan-02 16:32N 35°41' E 139°59'0 0.0
2017-Jan-02 15:32N 35°41' E 139°59'0 0.0
2017-Jan-02 14:32N 35°41' E 139°59'0 0.0
2017-Jan-02 13:32N 35°41' E 139°59'0 0.0
2017-Jan-02 12:32N 35°41' E 139°59'0 0.0
2017-Jan-02 11:32N 35°41' E 139°59'0 0.0
2017-Jan-02 10:32N 35°41' E 139°59'0 0.0
2017-Jan-02 09:33N 35°41' E 139°59'0 0.0
2017-Jan-02 08:27N 35°41' E 139°59'0 0.0
2017-Jan-02 04:10N 35°41' E 139°59'0 0.0
2017-Jan-02 03:29N 35°41' E 139°59'0 0.0
2017-Jan-01 23:14N 35°41' E 139°59'0 0.0
2017-Jan-01 22:33N 35°41' E 139°59'0 0.0
2017-Jan-01 21:27N 35°41' E 139°59'0 0.0
2017-Jan-01 20:31N 35°41' E 139°59'0 0.0
2017-Jan-01 19:33N 35°41' E 139°59'0 0.0
2017-Jan-01 18:33N 35°41' E 139°59'0 0.0
2017-Jan-01 17:33N 35°41' E 139°59'0 0.0
2017-Jan-01 16:33N 35°41' E 139°59'0 0.0
2017-Jan-01 15:33N 35°41' E 139°59'0 0.0
2017-Jan-01 13:14N 35°41' E 139°59'0 0.0
2017-Jan-01 12:31N 35°41' E 139°59'0 0.0
2017-Jan-01 11:29N 35°41' E 139°59'0 0.0
2017-Jan-01 07:28N 35°41' E 139°59'0 0.0
2017-Jan-01 06:09N 35°41' E 139°59'0 0.0
2017-Jan-01 05:32N 35°41' E 139°59'0 0.0
2017-Jan-01 04:33N 35°41' E 139°59'0 0.0
2017-Jan-01 03:15N 35°41' E 139°59'0 0.0
2017-Jan-01 02:19N 35°41' E 139°59'4 1.3
2016-Dec-31 23:27N 35°37' E 139°59'8 9.4
2016-Dec-31 22:33N 35°30' E 139°53'1010.3
2016-Dec-31 21:34N 35°22' E 139°45'1010.2
2016-Dec-31 20:33N 35°12' E 139°47'  
Track history (hours):
 
Tides and Currents Weather Stations Pressure Air Temp Water Temp Dewpoint Dewpoint Depression Visibility Wind Speed Wind Dir Waves Ship Positions

Shoukeimaruno.3

Last reported at 2017-Jan-09 08:32 UTC. Time now 2017-Jan-16 17:17 UTC.
Position N 35°03' E 139°44'.

Length 77 m; draft 4.2 m.

Type: Cargo ship. MMSI: 431300325.

Date/timePositionNaut miles runAvg speedWind from/ knotsBaromVisibWave heightAir tempDewpointWater temp
2017-Jan-09 08:32N 35°03' E 139°44'1212.6
2017-Jan-09 07:33N 35°15' E 139°46'1111.1
2017-Jan-09 06:33N 35°24' E 139°38'0 0.2
2017-Jan-09 05:33N 35°24' E 139°37'0 0.0
2017-Jan-09 04:33N 35°24' E 139°37'0 0.0
2017-Jan-09 03:33N 35°24' E 139°37'0 0.0
2017-Jan-09 02:33N 35°24' E 139°37'0 0.0
2017-Jan-09 01:33N 35°24' E 139°37'0 0.0
2017-Jan-09 00:33N 35°24' E 139°37'0 0.0
2017-Jan-08 23:33N 35°24' E 139°37'2 2.0
2017-Jan-08 22:33N 35°23' E 139°40'0 0.0
2017-Jan-08 21:33N 35°23' E 139°40'0 0.0
2017-Jan-08 20:33N 35°23' E 139°40'0 0.0
2017-Jan-08 19:34N 35°23' E 139°40'0 0.0
2017-Jan-08 18:31N 35°23' E 139°40'0 0.0
2017-Jan-08 17:33N 35°23' E 139°40'0 0.0
2017-Jan-08 16:34N 35°23' E 139°40'0 0.0
2017-Jan-08 15:31N 35°23' E 139°40'0 0.1
2017-Jan-08 14:34N 35°23' E 139°40'0 0.0
2017-Jan-08 13:34N 35°23' E 139°40'0 0.0
2017-Jan-08 12:34N 35°23' E 139°40'0 0.0
2017-Jan-08 11:33N 35°23' E 139°40'0 0.0
2017-Jan-08 10:32N 35°23' E 139°40'0 0.0
2017-Jan-08 09:32N 35°23' E 139°40'0 0.0
2017-Jan-08 08:32N 35°23' E 139°40'0 0.0
2017-Jan-08 07:32N 35°23' E 139°40'0 0.0
2017-Jan-08 06:32N 35°23' E 139°40'0 0.0
2017-Jan-08 05:32N 35°23' E 139°40'0 0.0
2017-Jan-08 04:31N 35°23' E 139°40'0 0.0
2017-Jan-08 03:32N 35°23' E 139°40'0 0.0
2017-Jan-08 02:31N 35°23' E 139°40'0 0.0
2017-Jan-08 01:31N 35°23' E 139°40'0 0.0
2017-Jan-08 00:31N 35°23' E 139°40'0 0.0
2017-Jan-07 23:32N 35°23' E 139°40'0 0.0
2017-Jan-07 22:32N 35°23' E 139°40'0 0.0
2017-Jan-07 21:32N 35°23' E 139°40'0 0.0
2017-Jan-07 20:32N 35°23' E 139°40'0 0.0
2017-Jan-07 19:32N 35°23' E 139°40'0 0.0
2017-Jan-07 18:32N 35°23' E 139°40'0 0.0
2017-Jan-07 17:31N 35°23' E 139°40'0 0.0
2017-Jan-07 16:31N 35°23' E 139°40'0 0.0
2017-Jan-07 15:32N 35°23' E 139°40'0 0.0
2017-Jan-07 14:31N 35°23' E 139°40'0 0.0
2017-Jan-07 13:31N 35°23' E 139°40'0 0.0
2017-Jan-07 12:31N 35°23' E 139°40'0 0.1
2017-Jan-07 11:31N 35°23' E 139°40'0 0.0
2017-Jan-07 10:31N 35°23' E 139°40'0 0.1
2017-Jan-07 09:31N 35°23' E 139°40'0 0.1
2017-Jan-07 08:31N 35°23' E 139°40'9 9.2
2017-Jan-07 07:33N 35°16' E 139°46'24610.2
2017-Jan-06 07:33N 34°05' E 134°60'1512.0
2017-Jan-06 06:19N 34°20' E 134°60'912.3
2017-Jan-06 05:33N 34°26' E 135°09'1312.4
2017-Jan-06 04:33N 34°37' E 135°17'5 4.8
2017-Jan-06 03:29N 34°42' E 135°19'2 1.8
2017-Jan-06 02:29N 34°42' E 135°17'0 0.0
2017-Jan-06 01:29N 34°42' E 135°17'0 0.0
2017-Jan-06 00:29N 34°42' E 135°17'0 0.0
2017-Jan-05 23:21N 34°42' E 135°17'1 1.9
2017-Jan-05 22:33N 34°42' E 135°19'0 0.2
2017-Jan-05 21:31N 34°42' E 135°19'0 0.0
2017-Jan-05 20:25N 34°42' E 135°19'0 0.0
2017-Jan-05 19:13N 34°42' E 135°19'0 0.0
2017-Jan-05 18:31N 34°42' E 135°19'0 0.0
2017-Jan-05 17:31N 34°42' E 135°19'0 0.0
2017-Jan-05 16:31N 34°42' E 135°19'2 2.2
2017-Jan-05 15:33N 34°40' E 135°19'1211.5
2017-Jan-05 14:33N 34°29' E 135°12'1211.2
2017-Jan-05 13:31N 34°21' E 135°03'10 9.8
2017-Jan-05 12:33N 34°12' E 134°59'241 8.6
2017-Jan-04 08:30N 35°10' E 139°43'1010.2
2017-Jan-04 07:33N 35°19' E 139°43'1010.5
2017-Jan-04 06:33N 35°28' E 139°49'1211.7
2017-Jan-04 05:33N 35°34' E 140°02'2 0.2
2017-Jan-03 21:30N 35°34' E 140°04'0 0.0
2017-Jan-03 20:06N 35°34' E 140°04'0 0.0
2017-Jan-03 19:27N 35°34' E 140°04'0 0.0
2017-Jan-03 18:24N 35°34' E 140°04'0 0.0
2017-Jan-03 16:09N 35°34' E 140°04'0 0.0
2017-Jan-03 14:24N 35°34' E 140°04'0 0.0
2017-Jan-03 13:09N 35°34' E 140°04'0 0.0
2017-Jan-03 12:05N 35°34' E 140°04'0 0.0
2017-Jan-03 11:29N 35°34' E 140°04'0 0.0
2017-Jan-03 08:06N 35°34' E 140°04'4 5.3
2017-Jan-03 07:24N 35°36' E 139°60'5 0.6
2017-Jan-02 22:05N 35°41' E 139°59'0 0.0
2017-Jan-02 21:32N 35°41' E 139°59'0 0.0
2017-Jan-02 20:23N 35°41' E 139°59'0 0.0
2017-Jan-02 19:32N 35°41' E 139°59'0 0.0
2017-Jan-02 18:32N 35°41' E 139°59'0 0.0
2017-Jan-02 17:32N 35°41' E 139°59'0 0.0
2017-Jan-02 16:32N 35°41' E 139°59'0 0.0
2017-Jan-02 15:32N 35°41' E 139°59'0 0.0
2017-Jan-02 14:32N 35°41' E 139°59'0 0.0
2017-Jan-02 13:32N 35°41' E 139°59'0 0.0
2017-Jan-02 12:32N 35°41' E 139°59'0 0.0
2017-Jan-02 11:32N 35°41' E 139°59'0 0.0
2017-Jan-02 10:32N 35°41' E 139°59'0 0.0
2017-Jan-02 09:33N 35°41' E 139°59'0 0.0
2017-Jan-02 08:27N 35°41' E 139°59'0 0.0
2017-Jan-02 04:10N 35°41' E 139°59'0 0.0
2017-Jan-02 03:29N 35°41' E 139°59'0 0.0
2017-Jan-01 23:14N 35°41' E 139°59'0 0.0
2017-Jan-01 22:33N 35°41' E 139°59'0 0.0
2017-Jan-01 21:27N 35°41' E 139°59'0 0.0
2017-Jan-01 20:31N 35°41' E 139°59'0 0.0
2017-Jan-01 19:33N 35°41' E 139°59'0 0.0
2017-Jan-01 18:33N 35°41' E 139°59'0 0.0
2017-Jan-01 17:33N 35°41' E 139°59'0 0.0
2017-Jan-01 16:33N 35°41' E 139°59'0 0.0
2017-Jan-01 15:33N 35°41' E 139°59'0 0.0
2017-Jan-01 13:14N 35°41' E 139°59'0 0.0
2017-Jan-01 12:31N 35°41' E 139°59'0 0.0
2017-Jan-01 11:29N 35°41' E 139°59'0 0.0
2017-Jan-01 07:28N 35°41' E 139°59'0 0.0
2017-Jan-01 06:09N 35°41' E 139°59'0 0.0
2017-Jan-01 05:32N 35°41' E 139°59'0 0.0
2017-Jan-01 04:33N 35°41' E 139°59'0 0.0
2017-Jan-01 03:15N 35°41' E 139°59'0 0.0
2017-Jan-01 02:19N 35°41' E 139°59'4 1.3
2016-Dec-31 23:27N 35°37' E 139°59'8 9.4
2016-Dec-31 22:33N 35°30' E 139°53'1010.3
2016-Dec-31 21:34N 35°22' E 139°45'1010.2
2016-Dec-31 20:33N 35°12' E 139°47'  

Dump ship's entire track history